createdAt,value
2018-07-03T00:00:39.569Z,1.40
2018-07-03T00:03:08.253Z,1.33
2018-07-03T00:05:36.729Z,1.57
2018-07-03T00:08:05.166Z,1.57
2018-07-03T00:10:33.729Z,1.43
2018-07-03T00:13:02.156Z,1.40
2018-07-03T00:15:30.826Z,1.50
2018-07-03T00:17:59.419Z,1.60
2018-07-03T00:20:27.953Z,1.90
2018-07-03T00:23:03.421Z,1.70
2018-07-03T00:25:31.984Z,2.20
2018-07-03T00:28:00.784Z,2.33
2018-07-03T00:30:29.483Z,2.00
2018-07-03T00:32:57.961Z,2.10
2018-07-03T00:35:26.499Z,2.00
2018-07-03T00:37:55.068Z,2.10
2018-07-03T00:40:23.532Z,2.00
2018-07-03T00:42:52.295Z,2.30
2018-07-03T00:45:20.697Z,1.93
2018-07-03T00:47:49.189Z,2.23
2018-07-03T00:50:17.663Z,2.03
2018-07-03T00:52:46.231Z,2.57
2018-07-03T00:55:14.860Z,2.10
2018-07-03T00:57:43.279Z,2.00
2018-07-03T01:00:31.459Z,2.20
2018-07-03T01:03:00.616Z,2.10
2018-07-03T01:05:29.252Z,2.00
2018-07-03T01:07:58.158Z,2.03
2018-07-03T01:10:27.018Z,1.87
2018-07-03T01:12:56.228Z,2.17
2018-07-03T01:15:25.913Z,2.57
2018-07-03T01:17:54.512Z,2.50
2018-07-03T01:20:22.928Z,2.63
2018-07-03T01:22:51.781Z,3.00
2018-07-03T01:25:20.368Z,2.80
2018-07-03T01:27:48.976Z,2.90
2018-07-03T01:30:17.231Z,2.30
2018-07-03T01:32:45.887Z,2.77
2018-07-03T01:35:14.323Z,2.67
2018-07-03T01:37:42.743Z,2.60
2018-07-03T01:40:11.525Z,2.67
2018-07-03T01:42:40.132Z,2.30
2018-07-03T01:45:08.805Z,3.13
2018-07-03T01:47:37.414Z,2.40
2018-07-03T01:50:06.410Z,2.63
2018-07-03T01:52:34.974Z,2.80
2018-07-03T01:55:03.499Z,2.50
2018-07-03T01:57:31.769Z,2.50
2018-07-03T02:00:00.360Z,2.63
2018-07-03T02:02:28.758Z,2.27
2018-07-03T02:04:57.181Z,2.27
2018-07-03T02:07:25.748Z,2.20
2018-07-03T02:09:54.248Z,2.40
2018-07-03T02:12:22.916Z,2.40
2018-07-03T02:14:51.384Z,2.30
2018-07-03T02:17:20.043Z,2.37
2018-07-03T02:19:48.665Z,2.10
2018-07-03T02:22:17.086Z,2.10
2018-07-03T02:24:45.411Z,2.10
2018-07-03T02:27:14.065Z,2.50
2018-07-03T02:29:42.862Z,1.87
2018-07-03T02:32:11.313Z,1.70
2018-07-03T02:34:39.937Z,1.97
2018-07-03T02:37:08.462Z,1.60
2018-07-03T02:39:37.158Z,1.33
2018-07-03T02:42:05.985Z,1.50
2018-07-03T02:44:34.477Z,1.67
2018-07-03T02:47:02.905Z,1.30
2018-07-03T02:49:31.392Z,1.60
2018-07-03T02:52:00.005Z,1.37
2018-07-03T02:54:28.604Z,1.50
2018-07-03T02:56:57.156Z,1.50
2018-07-03T02:59:25.597Z,1.50
2018-07-03T03:01:54.236Z,1.30
2018-07-03T03:04:22.702Z,1.53
2018-07-03T03:06:51.107Z,1.23
2018-07-03T03:09:19.616Z,1.53
2018-07-03T03:11:48.340Z,1.87
2018-07-03T03:14:16.974Z,2.10
2018-07-03T03:16:45.328Z,1.60
2018-07-03T03:19:13.824Z,1.30
2018-07-03T03:21:42.388Z,1.67
2018-07-03T03:24:11.168Z,1.40
2018-07-03T03:26:39.770Z,1.40
2018-07-03T03:29:08.136Z,1.57
2018-07-03T03:31:36.854Z,1.40
2018-07-03T03:34:05.811Z,1.50
2018-07-03T03:36:34.222Z,1.40
2018-07-03T03:39:03.899Z,1.43
2018-07-03T03:41:32.378Z,1.23
2018-07-03T03:44:00.812Z,1.60
2018-07-03T03:46:29.550Z,1.50
2018-07-03T03:48:57.933Z,1.87
2018-07-03T03:51:26.570Z,1.53
2018-07-03T03:53:55.019Z,1.53
2018-07-03T03:56:23.320Z,1.43
2018-07-03T03:58:52.063Z,1.50
2018-07-03T04:01:20.606Z,1.50
2018-07-03T04:03:48.971Z,1.40
2018-07-03T04:06:17.373Z,1.47
2018-07-03T04:08:45.982Z,1.63
2018-07-03T04:11:14.823Z,1.57
2018-07-03T04:13:43.402Z,1.50
2018-07-03T04:16:11.648Z,1.50
2018-07-03T04:18:40.156Z,1.60
2018-07-03T04:21:08.543Z,1.60
2018-07-03T04:23:37.718Z,1.90
2018-07-03T04:26:06.632Z,1.53
2018-07-03T04:28:34.869Z,1.80
2018-07-03T04:31:03.662Z,2.00
2018-07-03T04:33:32.220Z,2.00
2018-07-03T04:36:00.876Z,2.00
2018-07-03T04:38:29.373Z,1.63
2018-07-03T04:40:58.011Z,1.70
2018-07-03T04:43:26.584Z,1.90
2018-07-03T04:45:55.289Z,2.33
2018-07-03T04:48:23.919Z,2.30
2018-07-03T04:50:52.322Z,2.20
2018-07-03T04:53:20.821Z,2.03
2018-07-03T04:55:49.309Z,2.27
2018-07-03T04:58:17.704Z,2.10
2018-07-03T05:00:46.264Z,2.20
2018-07-03T05:03:14.958Z,1.90
2018-07-03T05:05:43.416Z,2.17
2018-07-03T05:08:11.849Z,3.03
2018-07-03T05:10:40.473Z,2.07
2018-07-03T05:13:09.103Z,2.10
2018-07-03T05:15:37.655Z,2.30
2018-07-03T05:18:06.161Z,2.07
2018-07-03T05:20:34.835Z,1.80
2018-07-03T05:23:03.582Z,2.00
2018-07-03T05:25:32.200Z,2.40
2018-07-03T05:28:00.634Z,2.30
2018-07-03T05:30:29.076Z,2.17
2018-07-03T05:32:57.671Z,2.40
2018-07-03T05:35:26.141Z,2.30
2018-07-03T05:37:54.733Z,2.10
2018-07-03T05:40:23.204Z,2.00
2018-07-03T05:42:51.695Z,2.17
2018-07-03T05:45:20.267Z,2.67
2018-07-03T05:47:48.795Z,2.40
2018-07-03T05:50:17.237Z,2.50
2018-07-03T05:52:45.878Z,2.30
2018-07-03T05:55:14.400Z,2.00
2018-07-03T05:57:42.998Z,2.17
2018-07-03T06:00:11.535Z,1.93
2018-07-03T06:02:40.115Z,1.80
2018-07-03T06:05:08.572Z,2.10
2018-07-03T06:07:37.379Z,1.90
2018-07-03T06:10:06.239Z,2.40
2018-07-03T06:12:34.583Z,2.43
2018-07-03T06:15:03.363Z,2.10
2018-07-03T06:17:32.018Z,2.37
2018-07-03T06:20:00.496Z,2.53
2018-07-03T06:22:28.941Z,2.37
2018-07-03T06:24:57.206Z,2.20
2018-07-03T06:27:25.677Z,2.67
2018-07-03T06:29:54.324Z,2.03
2018-07-03T06:32:22.929Z,2.10
2018-07-03T06:34:51.812Z,2.40
2018-07-03T06:37:20.449Z,2.00
2018-07-03T06:39:48.892Z,2.00
2018-07-03T06:42:17.274Z,2.10
2018-07-03T06:44:51.490Z,2.07
2018-07-03T06:47:20.018Z,2.33
2018-07-03T06:49:48.431Z,2.50
2018-07-03T06:52:16.945Z,2.70
2018-07-03T06:54:46.352Z,2.67
2018-07-03T06:57:15.193Z,2.30
2018-07-03T06:59:43.709Z,2.80
2018-07-03T07:02:12.190Z,2.77
2018-07-03T07:04:40.801Z,3.20
2018-07-03T07:07:09.349Z,3.30
2018-07-03T07:09:37.961Z,3.03
2018-07-03T07:12:06.590Z,2.57
2018-07-03T07:14:35.084Z,2.60
2018-07-03T07:17:03.463Z,2.73
2018-07-03T07:19:32.035Z,2.10
2018-07-03T07:22:00.485Z,1.80
2018-07-03T07:24:28.957Z,2.30
2018-07-03T07:26:57.890Z,2.10
2018-07-03T07:29:26.384Z,1.37
2018-07-03T07:32:02.004Z,1.57
2018-07-03T07:34:30.875Z,1.33
2018-07-03T07:37:01.312Z,1.50
2018-07-03T07:39:31.731Z,1.70
2018-07-03T07:42:00.258Z,1.20
2018-07-03T07:44:28.956Z,1.20
2018-07-03T07:46:57.841Z,1.20
2018-07-03T07:49:26.526Z,1.20
2018-07-03T07:51:55.267Z,1.20
2018-07-03T07:54:23.862Z,0.90
2018-07-03T07:56:52.325Z,1.40
2018-07-03T07:59:21.244Z,1.30
2018-07-03T08:01:49.892Z,2.30
2018-07-03T08:04:18.441Z,1.30
2018-07-03T08:06:47.212Z,1.20
2018-07-03T08:09:15.739Z,1.20
2018-07-03T08:11:44.510Z,1.20
2018-07-03T08:14:13.032Z,1.20
2018-07-03T08:16:41.561Z,1.00
2018-07-03T08:19:10.549Z,1.23
2018-07-03T08:21:39.181Z,1.10
2018-07-03T08:24:07.864Z,0.93
2018-07-03T08:26:36.893Z,1.50
2018-07-03T08:29:05.742Z,1.47
2018-07-03T08:31:34.557Z,1.23
2018-07-03T08:34:03.267Z,1.23
2018-07-03T08:36:31.804Z,1.20
2018-07-03T08:39:00.396Z,1.20
2018-07-03T08:41:28.957Z,1.30
2018-07-03T08:43:58.082Z,1.10
2018-07-03T08:46:26.666Z,1.10
2018-07-03T08:48:55.255Z,1.37
2018-07-03T08:51:23.809Z,1.20
2018-07-03T08:53:52.310Z,1.27
2018-07-03T08:56:20.766Z,1.07
2018-07-03T08:58:50.293Z,0.97
2018-07-03T09:01:20.991Z,1.30
2018-07-03T09:03:49.836Z,1.30
2018-07-03T09:06:18.140Z,1.27
2018-07-03T09:08:46.831Z,1.30
2018-07-03T09:11:15.436Z,1.13
2018-07-03T09:13:43.878Z,1.20
2018-07-03T09:16:12.538Z,1.10
2018-07-03T09:18:41.084Z,1.23
2018-07-03T09:21:09.694Z,1.10
2018-07-03T09:23:38.332Z,1.30
2018-07-03T09:26:06.834Z,1.00
2018-07-03T09:28:35.278Z,1.57
2018-07-03T09:31:03.890Z,1.07
2018-07-03T09:33:32.400Z,1.27
2018-07-03T09:36:00.890Z,1.10
2018-07-03T09:38:29.798Z,1.33
2018-07-03T09:40:58.274Z,1.10
2018-07-03T09:43:27.275Z,1.20
2018-07-03T09:45:55.901Z,1.30
2018-07-03T09:48:24.450Z,1.43
2018-07-03T09:50:53.181Z,1.17
2018-07-03T09:53:22.001Z,1.50
2018-07-03T09:55:50.469Z,1.20
2018-07-03T09:58:18.976Z,1.20
2018-07-03T10:00:52.914Z,1.30
2018-07-03T10:03:21.552Z,1.20
2018-07-03T10:05:50.352Z,1.20
2018-07-03T10:08:18.823Z,1.27
2018-07-03T10:10:47.560Z,1.27
2018-07-03T10:13:15.992Z,1.50
2018-07-03T10:15:44.559Z,1.00
2018-07-03T10:18:13.346Z,1.20
2018-07-03T10:20:42.097Z,1.40
2018-07-03T10:23:10.553Z,1.30
2018-07-03T10:25:39.124Z,1.07
2018-07-03T10:28:07.704Z,1.20
2018-07-03T10:30:36.404Z,1.83
2018-07-03T10:33:05.130Z,1.63
2018-07-03T10:35:33.844Z,1.60
2018-07-03T10:38:02.600Z,1.10
2018-07-03T10:40:30.948Z,1.53
2018-07-03T10:42:59.376Z,1.10
2018-07-03T10:45:28.017Z,1.43
2018-07-03T10:47:56.562Z,1.60
2018-07-03T10:50:25.084Z,1.20
2018-07-03T10:52:54.109Z,1.30
2018-07-03T10:55:22.526Z,1.37
2018-07-03T10:57:50.933Z,1.30
2018-07-03T11:00:19.738Z,1.70
2018-07-03T11:02:48.319Z,1.10
2018-07-03T11:05:16.980Z,1.40
2018-07-03T11:07:45.723Z,1.47
2018-07-03T11:10:14.541Z,1.30
2018-07-03T11:12:42.955Z,1.60
2018-07-03T11:15:11.852Z,1.67
2018-07-03T11:17:40.387Z,1.73
2018-07-03T11:20:09.349Z,2.50
2018-07-03T11:22:37.951Z,6.27
2018-07-03T11:25:06.459Z,2.37
2018-07-03T11:27:34.926Z,1.60
2018-07-03T11:30:04.215Z,1.57
2018-07-03T11:32:33.110Z,1.50
2018-07-03T11:35:02.057Z,1.40
2018-07-03T11:37:30.617Z,1.60
2018-07-03T11:39:59.325Z,1.63
2018-07-03T11:42:27.720Z,1.87
2018-07-03T11:44:56.508Z,1.67
2018-07-03T11:47:25.501Z,1.80
2018-07-03T11:49:54.442Z,1.70
2018-07-03T11:52:28.708Z,1.70
2018-07-03T11:54:57.501Z,1.97
2018-07-03T11:57:25.936Z,1.90
2018-07-03T11:59:54.447Z,1.70
2018-07-03T12:02:23.038Z,1.73
2018-07-03T12:04:51.629Z,1.50
2018-07-03T12:07:19.929Z,1.50
2018-07-03T12:09:48.589Z,1.83
2018-07-03T12:12:17.411Z,1.80
2018-07-03T12:14:45.961Z,1.70
2018-07-03T12:17:14.539Z,1.60
2018-07-03T12:19:43.193Z,1.67
2018-07-03T12:22:11.740Z,1.47
2018-07-03T12:24:40.498Z,1.57
2018-07-03T12:27:08.943Z,1.60
2018-07-03T12:29:37.671Z,1.80
2018-07-03T12:32:06.586Z,1.80
2018-07-03T12:34:35.146Z,2.00
2018-07-03T12:37:03.694Z,1.50
2018-07-03T12:39:32.158Z,1.60
2018-07-03T12:42:00.898Z,1.63
2018-07-03T12:44:29.459Z,1.60
2018-07-03T12:46:58.177Z,1.70
2018-07-03T12:49:26.650Z,2.33
2018-07-03T12:51:55.320Z,2.03
2018-07-03T12:54:23.964Z,1.87
2018-07-03T12:56:52.560Z,1.70
2018-07-03T12:59:21.451Z,1.83
2018-07-03T13:01:49.943Z,2.20
2018-07-03T13:04:18.492Z,1.93
2018-07-03T13:06:46.919Z,1.77
2018-07-03T13:09:15.349Z,2.27
2018-07-03T13:11:43.828Z,1.90
2018-07-03T13:14:12.354Z,2.10
2018-07-03T13:16:40.868Z,2.30
2018-07-03T13:19:09.324Z,2.03
2018-07-03T13:21:37.836Z,2.03
2018-07-03T13:24:06.491Z,2.70
2018-07-03T13:26:35.100Z,2.37
2018-07-03T13:29:05.968Z,2.00
2018-07-03T13:31:34.478Z,2.13
2018-07-03T13:34:03.206Z,2.20
2018-07-03T13:36:31.680Z,2.10
2018-07-03T13:39:00.492Z,2.10
2018-07-03T13:41:29.224Z,2.30
2018-07-03T13:43:57.634Z,2.47
2018-07-03T13:46:26.812Z,2.30
2018-07-03T13:48:55.653Z,2.70
2018-07-03T13:51:24.650Z,2.90
2018-07-03T13:53:53.255Z,2.40
2018-07-03T13:56:21.709Z,2.33
2018-07-03T13:58:51.033Z,2.20
2018-07-03T14:01:19.598Z,2.10
2018-07-03T14:03:48.476Z,2.27
2018-07-03T14:06:17.183Z,2.50
2018-07-03T14:08:45.890Z,2.50
2018-07-03T14:11:14.701Z,2.30
2018-07-03T14:13:43.297Z,2.62
2018-07-03T14:16:11.887Z,2.60
2018-07-03T14:18:40.763Z,2.52
2018-07-03T14:21:09.627Z,2.72
2018-07-03T14:23:38.235Z,2.62
2018-07-03T14:26:06.868Z,2.40
2018-07-03T14:28:35.341Z,2.20
2018-07-03T14:31:03.921Z,2.50
2018-07-03T14:33:32.380Z,2.60
2018-07-03T14:36:00.842Z,2.90
2018-07-03T14:38:29.363Z,2.60
2018-07-03T14:40:57.968Z,3.10
2018-07-03T14:43:26.696Z,2.42
2018-07-03T14:45:55.116Z,3.55
2018-07-03T14:48:23.556Z,3.20
2018-07-03T14:50:52.165Z,2.70
2018-07-03T14:53:20.721Z,3.12
2018-07-03T14:55:49.302Z,2.65
2018-07-03T14:58:17.936Z,2.83
2018-07-03T15:00:46.705Z,2.55
2018-07-03T15:03:15.472Z,2.55
2018-07-03T15:05:44.164Z,2.80
2018-07-03T15:08:12.621Z,3.08
2018-07-03T15:10:41.129Z,3.30
2018-07-03T15:13:09.741Z,2.90
2018-07-03T15:15:38.544Z,2.72
2018-07-03T15:18:11.102Z,2.60
2018-07-03T15:20:40.117Z,2.92
2018-07-03T15:23:09.321Z,3.95
2018-07-03T15:25:38.035Z,3.30
2018-07-03T15:28:06.344Z,3.75
2018-07-03T15:30:35.033Z,3.95
2018-07-03T15:33:03.586Z,3.87
2018-07-03T15:35:32.193Z,3.42
2018-07-03T15:38:00.925Z,4.08
2018-07-03T15:40:29.569Z,4.40
2018-07-03T15:42:58.258Z,3.70
2018-07-03T15:45:27.007Z,4.03
2018-07-03T15:47:55.559Z,3.67
2018-07-03T15:50:24.349Z,3.15
2018-07-03T15:52:52.949Z,2.60
2018-07-03T15:55:21.289Z,2.77
2018-07-03T15:57:49.845Z,3.40
2018-07-03T16:00:18.359Z,3.70
2018-07-03T16:04:02.645Z,3.63
2018-07-03T16:06:54.797Z,3.43
2018-07-03T16:09:23.495Z,3.20
2018-07-03T16:11:52.275Z,3.53
2018-07-03T16:14:20.515Z,3.63
2018-07-03T16:16:49.239Z,3.47
2018-07-03T16:19:23.315Z,3.10
2018-07-03T16:21:51.824Z,2.50
2018-07-03T16:24:21.154Z,2.43
2018-07-03T16:26:49.685Z,3.00
2018-07-03T16:29:18.325Z,2.87
2018-07-03T16:31:46.892Z,2.70
2018-07-03T16:34:15.442Z,3.10
2018-07-03T16:36:44.199Z,3.10
2018-07-03T16:39:12.921Z,2.67
2018-07-03T16:41:41.567Z,2.63
2018-07-03T16:44:10.684Z,2.43
2018-07-03T16:46:39.576Z,2.30
2018-07-03T16:49:08.205Z,2.67
2018-07-03T16:51:36.587Z,3.00
2018-07-03T16:54:04.963Z,3.17
2018-07-03T16:56:33.288Z,3.80
2018-07-03T16:59:01.766Z,4.00
2018-07-03T17:01:30.456Z,3.17
2018-07-03T17:03:59.177Z,1.90
2018-07-03T17:06:27.807Z,2.50
2018-07-03T17:08:56.398Z,2.70
2018-07-03T17:11:25.041Z,2.63
2018-07-03T17:13:53.863Z,2.63
2018-07-03T17:16:22.214Z,2.70
2018-07-03T17:18:56.326Z,2.07
2018-07-03T17:21:24.964Z,1.90
2018-07-03T17:23:53.511Z,1.93
2018-07-03T17:26:22.015Z,1.90
2018-07-03T17:28:50.602Z,1.70
2018-07-03T17:31:19.307Z,2.10
2018-07-03T17:33:47.947Z,2.20
2018-07-03T17:36:16.571Z,2.50
2018-07-03T17:38:45.242Z,2.00
2018-07-03T17:41:30.685Z,2.50
2018-07-03T17:44:17.627Z,2.53
2018-07-03T17:46:46.124Z,2.60
2018-07-03T17:49:14.769Z,2.30
2018-07-03T17:51:43.793Z,2.57
2018-07-03T17:54:12.517Z,2.37
2018-07-03T17:56:41.046Z,2.50
2018-07-03T17:59:09.668Z,2.20
2018-07-03T18:01:38.123Z,2.50
2018-07-03T18:04:06.837Z,2.17
2018-07-03T18:06:35.711Z,2.57
2018-07-03T18:09:08.210Z,2.20
2018-07-03T18:11:36.742Z,2.20
2018-07-03T18:14:05.931Z,2.20
2018-07-03T18:16:34.755Z,2.27
2018-07-03T18:19:08.970Z,2.10
2018-07-03T18:21:37.692Z,2.20
2018-07-03T18:24:06.604Z,2.13
2018-07-03T18:26:35.203Z,2.10
2018-07-03T18:29:04.131Z,2.50
2018-07-03T18:31:33.592Z,2.17
2018-07-03T18:34:02.385Z,2.40
2018-07-03T18:36:30.780Z,2.13
2018-07-03T18:38:59.072Z,2.17
2018-07-03T18:41:27.736Z,2.10
2018-07-03T18:43:56.417Z,2.13
2018-07-03T18:46:25.080Z,2.00
2018-07-03T18:48:53.656Z,2.60
2018-07-03T18:51:22.572Z,2.33
2018-07-03T18:53:51.093Z,2.60
2018-07-03T18:56:19.689Z,2.70
2018-07-03T18:58:48.179Z,2.60
2018-07-03T19:01:16.718Z,2.60
2018-07-03T19:03:45.479Z,2.60
2018-07-03T19:06:13.981Z,2.50
2018-07-03T19:08:42.856Z,2.57
2018-07-03T19:11:11.635Z,2.10
2018-07-03T19:13:40.488Z,2.67
2018-07-03T19:16:09.164Z,2.30
2018-07-03T19:18:37.885Z,2.20
2018-07-03T19:21:06.605Z,2.30
2018-07-03T19:23:35.216Z,2.17
2018-07-03T19:26:03.821Z,1.90
2018-07-03T19:28:32.624Z,1.80
2018-07-03T19:31:01.136Z,1.80
2018-07-03T19:33:37.933Z,1.90
2018-07-03T19:36:06.570Z,1.70
2018-07-03T19:38:35.185Z,1.70
2018-07-03T19:41:04.111Z,2.23
2018-07-03T19:43:35.837Z,1.97
2018-07-03T19:46:05.081Z,1.93
2018-07-03T19:48:33.955Z,1.90
2018-07-03T19:51:02.225Z,1.93
2018-07-03T19:53:30.899Z,2.00
2018-07-03T19:55:59.980Z,2.07
2018-07-03T19:58:28.543Z,1.80
2018-07-03T20:00:57.144Z,1.93
2018-07-03T20:03:25.768Z,1.93
2018-07-03T20:05:54.278Z,1.60
2018-07-03T20:08:22.850Z,2.00
2018-07-03T20:10:51.674Z,1.77
2018-07-03T20:13:20.337Z,2.30
2018-07-03T20:15:49.205Z,2.27
2018-07-03T20:18:17.757Z,2.20
2018-07-03T20:20:46.391Z,2.17
2018-07-03T20:23:15.329Z,2.60
2018-07-03T20:25:43.825Z,2.63
2018-07-03T20:28:12.398Z,2.80
2018-07-03T20:30:41.074Z,2.50
2018-07-03T20:33:09.684Z,2.60
2018-07-03T20:35:38.379Z,2.53
2018-07-03T20:38:07.293Z,2.33
2018-07-03T20:41:04.151Z,2.50
2018-07-03T20:43:35.503Z,2.47
2018-07-03T20:46:04.429Z,2.60
2018-07-03T20:48:33.028Z,2.10
2018-07-03T20:51:01.708Z,2.20
2018-07-03T20:53:30.391Z,3.10
2018-07-03T20:55:59.094Z,2.00
2018-07-03T20:58:27.674Z,1.83
2018-07-03T21:00:56.212Z,2.23
2018-07-03T21:03:25.020Z,2.00
2018-07-03T21:05:53.877Z,2.20
2018-07-03T21:08:22.545Z,1.90
2018-07-03T21:10:51.017Z,2.10
2018-07-03T21:13:19.611Z,2.10
2018-07-03T21:15:48.282Z,1.90
2018-07-03T21:18:16.775Z,2.50
2018-07-03T21:20:45.464Z,2.90
2018-07-03T21:23:13.825Z,2.73
2018-07-03T21:25:42.429Z,2.20
2018-07-03T21:28:10.954Z,2.63
2018-07-03T21:30:39.613Z,2.43
2018-07-03T21:33:08.468Z,2.30
2018-07-03T21:35:37.158Z,2.37
2018-07-03T21:38:05.640Z,2.10
2018-07-03T21:40:34.301Z,1.90
2018-07-03T21:43:02.961Z,2.07
2018-07-03T21:45:31.479Z,2.07
2018-07-03T21:48:00.052Z,2.30
2018-07-03T21:50:28.722Z,1.60
2018-07-03T21:52:57.367Z,1.70
2018-07-03T21:55:25.792Z,2.23
2018-07-03T21:57:54.389Z,1.80
2018-07-03T22:00:36.229Z,1.87
2018-07-03T22:03:06.408Z,1.80
2018-07-03T22:05:35.593Z,1.80
2018-07-03T22:08:04.291Z,2.13
2018-07-03T22:10:33.313Z,2.07
2018-07-03T22:13:02.172Z,1.90
2018-07-03T22:15:30.805Z,1.77
2018-07-03T22:17:59.216Z,2.20
2018-07-03T22:20:27.860Z,2.40
2018-07-03T22:22:56.235Z,2.57
2018-07-03T22:25:24.570Z,2.40
2018-07-03T22:27:53.392Z,2.53
2018-07-03T22:30:21.924Z,2.70
2018-07-03T22:32:50.358Z,2.57
2018-07-03T22:35:18.937Z,2.97
2018-07-03T22:37:47.529Z,2.93
2018-07-03T22:40:16.012Z,2.70
2018-07-03T22:42:44.602Z,2.90
2018-07-03T22:45:13.272Z,2.90
2018-07-03T22:47:41.749Z,2.77
2018-07-03T22:50:10.332Z,3.10
2018-07-03T22:52:39.049Z,2.40
2018-07-03T22:55:07.412Z,2.70
2018-07-03T22:57:36.044Z,2.70
2018-07-03T23:00:05.355Z,2.40
2018-07-03T23:02:33.868Z,2.40
2018-07-03T23:05:02.683Z,2.87
2018-07-03T23:07:31.130Z,2.50
2018-07-03T23:09:59.800Z,2.60
2018-07-03T23:12:28.153Z,2.60
2018-07-03T23:14:57.017Z,2.83
2018-07-03T23:17:25.468Z,2.70
2018-07-03T23:19:53.907Z,3.30
2018-07-03T23:22:22.615Z,2.60
2018-07-03T23:24:51.258Z,3.17
2018-07-03T23:27:19.708Z,2.80
2018-07-03T23:29:48.283Z,2.73
2018-07-03T23:32:16.910Z,3.27
2018-07-03T23:34:45.473Z,2.90
2018-07-03T23:37:14.184Z,2.67
2018-07-03T23:39:42.560Z,3.20
2018-07-03T23:42:11.161Z,3.00
2018-07-03T23:44:39.668Z,2.77
2018-07-03T23:47:25.188Z,2.87
2018-07-03T23:50:10.721Z,2.90
2018-07-03T23:52:56.457Z,3.13
2018-07-03T23:55:41.940Z,3.03
2018-07-03T23:58:27.383Z,2.73
